Mc Girk, Missouri
Current Conditions -  °F | °C
As of 8:53 AM on Wednesday 22 Oct 2014 (Local Time) from KJEF Reporting Station
Clear Clear  
Wind Chill: 44°   Ceiling: Unl
Heat Index: 48°   Visibility: 10mi
Dew Point: 42°   Wind: 9mph
Humidity: 80%   Direction: 110°ESE
Pressure: 30.29"   Gusts: NA
Location:  38.6111°N, 92.4808°W
Report Text: KJEF 221353Z 11008KT 10SM CLR 09/06 A3029 RMK AO2 SLP247 T00890056
Loading
Personal Weather Stations






























Interactive Weather Map
Tropical Storm Tracking
New forecast layout! Learn more

10-Day Weather Forecast

Advertisements
Track Severe Weather on mobile